createdAt,value
2022-10-28T03:00:20.751Z,14.65
2022-10-28T03:02:49.158Z,14.60
2022-10-28T03:05:17.959Z,14.60
2022-10-28T03:07:46.342Z,14.62
2022-10-28T03:10:14.831Z,14.59
2022-10-28T03:12:43.274Z,14.57
2022-10-28T03:15:12.437Z,14.57
2022-10-28T03:17:43.117Z,14.58
2022-10-28T03:20:12.900Z,14.50
2022-10-28T03:22:44.033Z,14.54
2022-10-28T03:25:12.730Z,14.53
2022-10-28T03:27:41.967Z,14.53
2022-10-28T03:30:11.646Z,14.53
2022-10-28T03:32:44.286Z,14.57
2022-10-28T03:35:12.862Z,14.55
2022-10-28T03:37:43.365Z,14.58
2022-10-28T03:40:13.531Z,14.62
2022-10-28T03:42:42.690Z,14.69
2022-10-28T03:45:12.245Z,14.73
2022-10-28T03:47:41.866Z,14.77
2022-10-28T03:50:12.003Z,14.78
2022-10-28T03:52:40.388Z,14.75
2022-10-28T03:55:09.587Z,14.76
2022-10-28T03:57:38.217Z,14.68
2022-10-28T04:00:08.787Z,14.68
2022-10-28T04:02:43.168Z,14.66
2022-10-28T04:05:12.899Z,14.57
2022-10-28T04:07:41.282Z,14.55
2022-10-28T04:10:10.716Z,14.52
2022-10-28T04:12:39.105Z,14.44
2022-10-28T04:15:08.995Z,14.49
2022-10-28T04:17:37.379Z,14.58
2022-10-28T04:20:07.039Z,14.71
2022-10-28T04:22:36.760Z,14.79
2022-10-28T04:25:05.848Z,14.91
2022-10-28T04:27:34.197Z,14.85
2022-10-28T04:30:02.552Z,14.74
2022-10-28T04:32:30.879Z,14.74
2022-10-28T04:34:59.323Z,14.80
2022-10-28T04:37:27.689Z,14.71
2022-10-28T04:39:57.384Z,14.72
2022-10-28T04:42:27.403Z,14.72
2022-10-28T04:44:55.749Z,14.66
2022-10-28T04:47:24.218Z,14.60
2022-10-28T04:49:52.712Z,14.66
2022-10-28T04:52:21.110Z,14.68
2022-10-28T04:54:49.440Z,14.71
2022-10-28T04:57:19.069Z,14.72
2022-10-28T04:59:47.454Z,14.70
2022-10-28T05:02:16.015Z,14.70
2022-10-28T05:04:44.611Z,14.64
2022-10-28T05:07:12.935Z,14.58
2022-10-28T05:09:41.245Z,14.56
2022-10-28T05:12:09.758Z,14.59
2022-10-28T05:14:39.593Z,14.60
2022-10-28T05:17:09.625Z,14.63
2022-10-28T05:19:38.068Z,14.63
2022-10-28T05:22:06.438Z,14.63
2022-10-28T05:24:35.047Z,14.67
2022-10-28T05:27:03.412Z,14.69
2022-10-28T05:29:33.397Z,14.73
2022-10-28T05:34:36.653Z,14.74
2022-10-28T05:37:05.021Z,14.73
2022-10-28T05:39:33.415Z,14.72
2022-10-28T05:42:01.863Z,14.70
2022-10-28T05:44:30.308Z,14.73
2022-10-28T05:46:58.680Z,14.69
2022-10-28T05:49:28.445Z,14.67
2022-10-28T05:51:57.031Z,14.67
2022-10-28T05:54:25.434Z,14.64
2022-10-28T05:56:53.923Z,14.63
2022-10-28T05:59:22.398Z,14.64
2022-10-28T06:01:50.963Z,14.63
2022-10-28T06:04:19.493Z,14.59
2022-10-28T06:06:49.248Z,14.60
2022-10-28T06:09:17.629Z,14.60
2022-10-28T06:11:44.351Z,14.62
2022-10-28T06:14:12.726Z,14.58
2022-10-28T06:16:42.338Z,14.60
2022-10-28T06:19:10.826Z,14.62
2022-10-28T06:21:39.269Z,14.63
2022-10-28T06:24:12.073Z,14.65
2022-10-28T06:26:40.778Z,14.67
2022-10-28T06:29:11.032Z,14.69
2022-10-28T06:31:39.824Z,14.69
2022-10-28T06:34:08.931Z,14.68
2022-10-28T06:36:37.431Z,14.70
2022-10-28T06:39:06.153Z,14.75
2022-10-28T06:41:35.924Z,14.80
2022-10-28T06:44:04.795Z,14.86
2022-10-28T06:46:34.713Z,14.86
2022-10-28T06:49:04.749Z,14.92
2022-10-28T06:51:33.628Z,15.00
2022-10-28T06:54:02.050Z,15.07
2022-10-28T06:56:30.406Z,15.18
2022-10-28T06:59:00.151Z,15.23
2022-10-28T07:01:28.563Z,15.27
2022-10-28T07:03:56.929Z,15.30
2022-10-28T07:06:25.526Z,15.29
2022-10-28T07:08:53.968Z,15.34
2022-10-28T07:11:22.334Z,15.37
2022-10-28T07:13:50.689Z,15.40
2022-10-28T07:16:20.642Z,15.39
2022-10-28T07:18:49.078Z,15.36
2022-10-28T07:21:18.413Z,15.37
2022-10-28T07:23:48.285Z,15.34
2022-10-28T07:26:16.774Z,15.36
2022-10-28T07:28:45.216Z,15.39
2022-10-28T07:31:13.586Z,15.45
2022-10-28T07:33:43.568Z,15.45
2022-10-28T07:36:12.962Z,15.44
2022-10-28T07:38:41.446Z,15.45
2022-10-28T07:41:11.498Z,15.48
2022-10-28T07:43:40.357Z,15.48
2022-10-28T07:46:09.859Z,15.50
2022-10-28T07:48:39.592Z,15.54
2022-10-28T07:51:11.783Z,15.60
2022-10-28T07:53:40.763Z,15.68
2022-10-28T07:56:13.586Z,15.70
2022-10-28T07:58:43.481Z,15.78
2022-10-28T08:01:16.963Z,15.86
2022-10-28T08:03:47.546Z,15.93
2022-10-28T08:06:20.693Z,16.02
2022-10-28T08:08:55.097Z,16.14
2022-10-28T08:11:24.866Z,16.25
2022-10-28T08:13:55.268Z,16.34
2022-10-28T08:16:24.080Z,16.39
2022-10-28T08:18:53.240Z,16.44
2022-10-28T08:21:22.985Z,16.56
2022-10-28T08:23:51.481Z,16.64
2022-10-28T08:26:19.998Z,16.73
2022-10-28T08:28:48.455Z,16.80
2022-10-28T08:31:16.869Z,16.88
2022-10-28T08:33:46.314Z,16.92
2022-10-28T08:36:17.092Z,16.93
2022-10-28T08:38:47.781Z,16.99
2022-10-28T08:41:31.437Z,17.00
2022-10-28T08:44:47.723Z,16.93
2022-10-28T08:47:28.318Z,16.91
2022-10-28T08:50:02.942Z,16.90
2022-10-28T08:52:36.440Z,16.96
2022-10-28T08:55:11.895Z,16.98
2022-10-28T08:57:45.192Z,16.96
2022-10-28T09:00:23.680Z,16.97
2022-10-28T09:03:17.932Z,16.93
2022-10-28T09:05:50.016Z,16.99
2022-10-28T09:08:24.871Z,16.99
2022-10-28T09:11:18.107Z,17.05
2022-10-28T09:13:46.293Z,17.12
2022-10-28T09:16:23.051Z,17.14
2022-10-28T09:18:55.265Z,17.16
2022-10-28T09:21:33.142Z,17.21
2022-10-28T09:24:08.142Z,17.30
2022-10-28T09:26:50.658Z,17.41
2022-10-28T09:29:38.087Z,17.92
2022-10-28T09:32:19.987Z,18.60
2022-10-28T09:34:52.776Z,19.28
2022-10-28T09:37:25.600Z,19.77
2022-10-28T09:39:58.183Z,20.10
2022-10-28T09:42:32.126Z,20.39
2022-10-28T09:45:05.973Z,20.68
2022-10-28T09:47:39.818Z,20.82
2022-10-28T09:50:17.261Z,21.00
2022-10-28T09:52:57.684Z,21.58
2022-10-28T09:55:26.222Z,21.94
2022-10-28T09:57:56.469Z,22.04
2022-10-28T10:00:25.027Z,22.23
2022-10-28T10:02:58.595Z,22.26
2022-10-28T10:05:27.729Z,22.35
2022-10-28T10:08:00.627Z,22.43
2022-10-28T10:10:33.829Z,21.87
2022-10-28T10:13:06.017Z,22.31
2022-10-28T10:15:40.244Z,22.66
2022-10-28T10:18:17.708Z,23.06
2022-10-28T10:20:52.991Z,22.87
2022-10-28T10:23:29.654Z,22.55
2022-10-28T10:26:04.466Z,22.82
2022-10-28T10:28:38.328Z,23.04
2022-10-28T10:31:09.573Z,23.25
2022-10-28T10:33:40.353Z,23.39
2022-10-28T10:36:18.029Z,23.38
2022-10-28T10:38:50.459Z,23.46
2022-10-28T10:41:35.162Z,23.41
2022-10-28T10:44:36.708Z,23.40
2022-10-28T10:47:22.885Z,23.92
2022-10-28T10:49:52.110Z,23.90
2022-10-28T10:52:26.005Z,23.98
2022-10-28T10:55:05.387Z,24.07
2022-10-28T10:57:35.168Z,23.98
2022-10-28T11:00:06.611Z,23.98
2022-10-28T11:02:39.805Z,23.75
2022-10-28T11:05:11.059Z,23.68
2022-10-28T11:07:47.808Z,23.92
2022-10-28T11:10:24.669Z,23.44
2022-10-28T11:12:55.909Z,23.59
2022-10-28T11:15:28.294Z,23.61
2022-10-28T11:18:00.310Z,23.05
2022-10-28T11:20:36.455Z,23.00
2022-10-28T11:23:23.155Z,23.29
2022-10-28T11:25:54.132Z,23.47
2022-10-28T11:28:48.654Z,23.90
2022-10-28T11:31:47.975Z,23.63
2022-10-28T11:34:38.480Z,23.87
2022-10-28T11:37:14.743Z,23.78
2022-10-28T11:39:55.499Z,24.01
2022-10-28T11:42:37.073Z,24.11
2022-10-28T11:45:13.173Z,24.28
2022-10-28T11:48:00.117Z,24.08
2022-10-28T11:50:50.970Z,24.15
2022-10-28T11:53:47.546Z,24.05
2022-10-28T11:56:28.836Z,23.64
2022-10-28T11:59:14.927Z,23.81
